createdAt,value
2017-07-10T00:00:47.386Z,0
2017-07-10T00:01:47.017Z,0
2017-07-10T00:02:47.533Z,0
2017-07-10T00:03:47.401Z,0
2017-07-10T00:04:47.114Z,0
2017-07-10T00:05:47.795Z,0
2017-07-10T00:06:47.185Z,0
2017-07-10T00:07:47.544Z,0
2017-07-10T00:08:47.644Z,0
2017-07-10T00:09:47.267Z,0
2017-07-10T00:10:47.653Z,0
2017-07-10T00:11:47.642Z,0
2017-07-10T00:12:47.409Z,0
2017-07-10T00:13:47.409Z,0
2017-07-10T00:14:47.410Z,0
2017-07-10T00:15:47.529Z,0
2017-07-10T00:16:47.783Z,0
2017-07-10T00:17:47.543Z,0
2017-07-10T00:18:47.252Z,0
2017-07-10T00:19:48.199Z,0
2017-07-10T00:20:48.221Z,0
2017-07-10T00:21:48.249Z,0
2017-07-10T00:22:46.972Z,0
2017-07-10T00:23:47.980Z,0
2017-07-10T00:24:48.329Z,0
2017-07-10T00:25:48.358Z,0
2017-07-10T00:26:48.058Z,0
2017-07-10T00:27:48.095Z,0
2017-07-10T00:28:48.118Z,0
2017-07-10T00:29:48.154Z,0
2017-07-10T00:30:48.175Z,0
2017-07-10T00:31:47.564Z,0
2017-07-10T00:32:47.658Z,0
2017-07-10T00:33:48.252Z,0
2017-07-10T00:34:47.961Z,0
2017-07-10T00:35:47.983Z,0
2017-07-10T00:36:48.011Z,0
2017-07-10T00:37:48.361Z,0
2017-07-10T00:38:48.393Z,0
2017-07-10T00:39:48.094Z,0
2017-07-10T00:40:48.441Z,0
2017-07-10T00:41:48.151Z,0
2017-07-10T00:42:48.179Z,0
2017-07-10T00:43:47.567Z,0
2017-07-10T00:44:48.553Z,0
2017-07-10T00:45:48.271Z,0
2017-07-10T00:46:48.612Z,0
2017-07-10T00:47:48.971Z,0
2017-07-10T00:48:47.695Z,0
2017-07-10T00:49:48.375Z,0
2017-07-10T00:50:48.406Z,0
2017-07-10T00:51:49.077Z,0
2017-07-10T00:52:49.108Z,0
2017-07-10T00:53:48.806Z,0
2017-07-10T00:54:48.510Z,0
2017-07-10T00:55:49.186Z,0
2017-07-10T00:56:48.899Z,0
2017-07-10T00:57:48.914Z,0
2017-07-10T00:58:48.616Z,0
2017-07-10T00:59:48.973Z,0
2017-07-10T01:00:48.997Z,0
2017-07-10T01:01:49.350Z,0
2017-07-10T01:02:49.050Z,0
2017-07-10T01:03:49.409Z,0
2017-07-10T01:04:49.107Z,0
2017-07-10T01:05:48.817Z,0
2017-07-10T01:06:48.517Z,0
2017-07-10T01:07:49.520Z,0
2017-07-10T01:08:49.221Z,0
2017-07-10T01:09:48.594Z,0
2017-07-10T01:10:49.525Z,0
2017-07-10T01:11:48.971Z,0
2017-07-10T01:12:49.363Z,0
2017-07-10T01:13:49.207Z,0
2017-07-10T01:14:49.172Z,0
2017-07-10T01:15:49.471Z,0
2017-07-10T01:16:49.207Z,0
2017-07-10T01:17:49.507Z,0
2017-07-10T01:18:49.506Z,0
2017-07-10T01:19:49.511Z,0
2017-07-10T01:20:49.872Z,0
2017-07-10T01:21:49.363Z,0
2017-07-10T01:22:49.612Z,0
2017-07-10T01:23:49.371Z,0
2017-07-10T01:24:49.638Z,0
2017-07-10T01:25:50.007Z,0
2017-07-10T01:26:49.479Z,0
2017-07-10T01:27:49.727Z,0
2017-07-10T01:28:49.515Z,0
2017-07-10T01:29:49.512Z,0
2017-07-10T01:30:49.808Z,0
2017-07-10T01:31:49.850Z,0
2017-07-10T01:32:50.009Z,0
2017-07-10T01:33:50.671Z,0
2017-07-10T01:34:50.152Z,0
2017-07-10T01:35:50.471Z,0
2017-07-10T01:36:50.113Z,0
2017-07-10T01:37:50.578Z,0
2017-07-10T01:38:50.913Z,0
2017-07-10T01:39:50.493Z,0
2017-07-10T01:40:50.830Z,0
2017-07-10T01:41:50.602Z,0
2017-07-10T01:42:50.225Z,0
2017-07-10T01:43:50.531Z,0
2017-07-10T01:44:49.845Z,0
2017-07-10T01:45:50.308Z,0
2017-07-10T01:46:49.966Z,0
2017-07-10T01:47:50.668Z,0
2017-07-10T01:48:50.346Z,0
2017-07-10T01:49:50.423Z,0
2017-07-10T01:50:50.884Z,0
2017-07-10T01:51:50.549Z,0
2017-07-10T01:52:50.511Z,0
2017-07-10T01:53:50.137Z,0
2017-07-10T01:54:51.029Z,0
2017-07-10T01:55:51.253Z,0
2017-07-10T01:56:51.401Z,0
2017-07-10T01:57:50.866Z,0
2017-07-10T01:58:50.240Z,0
2017-07-10T01:59:50.364Z,0
2017-07-10T02:00:51.249Z,0
2017-07-10T02:01:50.239Z,0
2017-07-10T02:02:50.845Z,0
2017-07-10T02:03:50.879Z,0
2017-07-10T02:04:50.987Z,0
2017-07-10T02:05:50.953Z,0
2017-07-10T02:06:51.228Z,0
2017-07-10T02:07:50.615Z,0
2017-07-10T02:08:50.643Z,0
2017-07-10T02:09:50.858Z,0
2017-07-10T02:10:50.889Z,0
2017-07-10T02:11:50.977Z,0
2017-07-10T02:12:51.267Z,0
2017-07-10T02:13:50.648Z,0
2017-07-10T02:14:51.003Z,0
2017-07-10T02:15:50.697Z,0
2017-07-10T02:16:50.715Z,0
2017-07-10T02:17:50.801Z,0
2017-07-10T02:18:50.771Z,0
2017-07-10T02:19:51.126Z,0
2017-07-10T02:20:50.825Z,0
2017-07-10T02:21:51.257Z,0
2017-07-10T02:22:50.551Z,0
2017-07-10T02:23:51.550Z,0
2017-07-10T02:24:51.464Z,0
2017-07-10T02:25:50.634Z,0
2017-07-10T02:26:51.079Z,0
2017-07-10T02:27:51.090Z,0
2017-07-10T02:28:51.088Z,0
2017-07-10T02:29:51.714Z,0
2017-07-10T02:30:51.085Z,0
2017-07-10T02:31:51.226Z,0
2017-07-10T02:32:50.821Z,0
2017-07-10T02:33:51.499Z,0
2017-07-10T02:34:50.868Z,0
2017-07-10T02:35:51.871Z,0
2017-07-10T02:36:51.039Z,0
2017-07-10T02:37:51.595Z,0
2017-07-10T02:38:51.368Z,0
2017-07-10T02:39:51.006Z,0
2017-07-10T02:40:51.399Z,0
2017-07-10T02:41:51.392Z,0
2017-07-10T02:42:52.066Z,0
2017-07-10T02:43:51.232Z,0
2017-07-10T02:44:51.794Z,0
2017-07-10T02:45:51.809Z,0
2017-07-10T02:46:51.521Z,0
2017-07-10T02:47:51.870Z,0
2017-07-10T02:48:51.928Z,0
2017-07-10T02:49:51.591Z,0
2017-07-10T02:50:51.622Z,0
2017-07-10T02:51:52.301Z,0
2017-07-10T02:52:52.327Z,0
2017-07-10T02:53:52.351Z,0
2017-07-10T02:54:52.061Z,0
2017-07-10T02:55:51.754Z,0
2017-07-10T02:56:52.318Z,0
2017-07-10T02:57:52.455Z,0
2017-07-10T02:58:52.572Z,0
2017-07-10T02:59:52.192Z,0
2017-07-10T03:00:52.404Z,0
2017-07-10T03:01:52.557Z,0
2017-07-10T03:02:51.941Z,0
2017-07-10T03:03:51.974Z,0
2017-07-10T03:04:52.440Z,0
2017-07-10T03:05:52.407Z,0
2017-07-10T03:06:52.167Z,0
2017-07-10T03:07:52.399Z,0
2017-07-10T03:08:51.771Z,0
2017-07-10T03:09:51.799Z,0
2017-07-10T03:10:51.823Z,0
2017-07-10T03:11:52.243Z,0
2017-07-10T03:12:52.850Z,0
2017-07-10T03:13:52.562Z,0
2017-07-10T03:14:52.246Z,0
2017-07-10T03:15:52.381Z,0
2017-07-10T03:16:52.319Z,0
2017-07-10T03:17:52.655Z,0
2017-07-10T03:18:52.680Z,0
2017-07-10T03:19:52.714Z,0
2017-07-10T03:20:53.065Z,0
2017-07-10T03:21:52.436Z,0
2017-07-10T03:22:52.490Z,0
2017-07-10T03:23:52.490Z,0
2017-07-10T03:24:53.161Z,0
2017-07-10T03:25:52.539Z,0
2017-07-10T03:26:53.216Z,0
2017-07-10T03:27:52.919Z,0
2017-07-10T03:28:52.623Z,0
2017-07-10T03:29:53.309Z,0
2017-07-10T03:30:52.674Z,0
2017-07-10T03:31:52.710Z,0
2017-07-10T03:32:53.045Z,0
2017-07-10T03:33:52.748Z,0
2017-07-10T03:34:52.781Z,0
2017-07-10T03:35:53.183Z,0
2017-07-10T03:36:52.502Z,0
2017-07-10T03:37:53.502Z,0
2017-07-10T03:38:52.876Z,0
2017-07-10T03:39:53.591Z,0
2017-07-10T03:40:53.294Z,0
2017-07-10T03:41:52.967Z,0
2017-07-10T03:42:53.651Z,0
2017-07-10T03:43:52.690Z,0
2017-07-10T03:44:53.459Z,0
2017-07-10T03:45:53.398Z,0
2017-07-10T03:46:53.415Z,0
2017-07-10T03:47:53.815Z,0
2017-07-10T03:48:53.138Z,0
2017-07-10T03:49:53.628Z,0
2017-07-10T03:50:53.193Z,0
2017-07-10T03:51:53.591Z,0
2017-07-10T03:52:53.246Z,0
2017-07-10T03:53:54.186Z,0
2017-07-10T03:54:53.397Z,0
2017-07-10T03:55:54.177Z,0
2017-07-10T03:56:53.363Z,0
2017-07-10T03:57:54.189Z,0
2017-07-10T03:58:54.300Z,0
2017-07-10T03:59:52.785Z,0
2017-07-10T04:00:53.872Z,0
2017-07-10T04:01:53.918Z,0
2017-07-10T04:02:54.241Z,0
2017-07-10T04:03:53.645Z,0
2017-07-10T04:04:54.276Z,0
2017-07-10T04:05:54.234Z,0
2017-07-10T04:06:53.936Z,0
2017-07-10T04:07:54.304Z,0
2017-07-10T04:09:08.879Z,0
2017-07-10T04:09:54.493Z,0
2017-07-10T04:10:53.392Z,0
2017-07-10T04:11:53.738Z,0
2017-07-10T04:12:53.442Z,0
2017-07-10T04:13:53.798Z,0
2017-07-10T04:14:54.153Z,0
2017-07-10T04:15:54.220Z,0
2017-07-10T04:16:54.292Z,0
2017-07-10T04:17:53.958Z,0
2017-07-10T04:18:54.293Z,0
2017-07-10T04:19:53.957Z,0
2017-07-10T04:20:54.100Z,0
2017-07-10T04:21:54.104Z,0
2017-07-10T04:22:54.138Z,0
2017-07-10T04:23:53.814Z,0
2017-07-10T04:24:54.631Z,0
2017-07-10T04:25:54.634Z,0
2017-07-10T04:26:53.956Z,0
2017-07-10T04:27:54.637Z,0
2017-07-10T04:28:54.400Z,0
2017-07-10T04:29:54.991Z,0
2017-07-10T04:30:54.727Z,0
2017-07-10T04:31:54.738Z,0
2017-07-10T04:32:54.407Z,0
2017-07-10T04:33:54.316Z,0
2017-07-10T04:34:54.990Z,0
2017-07-10T04:35:54.703Z,0
2017-07-10T04:36:54.064Z,0
2017-07-10T04:37:54.739Z,0
2017-07-10T04:38:55.098Z,0
2017-07-10T04:39:54.482Z,0
2017-07-10T04:40:54.492Z,0
2017-07-10T04:41:55.285Z,0
2017-07-10T04:42:54.957Z,0
2017-07-10T04:43:54.666Z,0
2017-07-10T04:44:54.613Z,0
2017-07-10T04:45:55.067Z,0
2017-07-10T04:46:54.766Z,0
2017-07-10T04:47:55.085Z,0
2017-07-10T04:48:54.697Z,0
2017-07-10T04:49:55.388Z,0
2017-07-10T04:50:54.428Z,0
2017-07-10T04:51:55.106Z,0
2017-07-10T04:52:54.813Z,0
2017-07-10T04:53:54.500Z,0
2017-07-10T04:54:55.506Z,0
2017-07-10T04:55:54.877Z,0
2017-07-10T04:56:55.229Z,0
2017-07-10T04:57:55.580Z,0
2017-07-10T04:58:54.950Z,0
2017-07-10T04:59:54.986Z,0
2017-07-10T05:00:55.338Z,0
2017-07-10T05:01:55.711Z,0
2017-07-10T05:02:55.707Z,0
2017-07-10T05:03:55.738Z,0
2017-07-10T05:04:55.439Z,0
2017-07-10T05:05:55.465Z,0
2017-07-10T05:06:55.161Z,0
2017-07-10T05:07:55.184Z,0
2017-07-10T05:08:55.211Z,0
2017-07-10T05:09:55.587Z,0
2017-07-10T05:10:55.293Z,0
2017-07-10T05:11:55.320Z,0
2017-07-10T05:12:55.964Z,0
2017-07-10T05:13:55.663Z,0
2017-07-10T05:14:55.371Z,0
2017-07-10T05:15:55.393Z,0
2017-07-10T05:16:55.552Z,0
2017-07-10T05:17:56.126Z,0
2017-07-10T05:18:55.878Z,0
2017-07-10T05:19:55.821Z,0
2017-07-10T05:20:55.526Z,0
2017-07-10T05:21:55.626Z,0
2017-07-10T05:22:55.568Z,0
2017-07-10T05:23:55.915Z,0
2017-07-10T05:24:55.950Z,0
2017-07-10T05:25:56.407Z,0
2017-07-10T05:26:56.082Z,0
2017-07-10T05:27:56.039Z,0
2017-07-10T05:28:56.055Z,0
2017-07-10T05:29:55.916Z,0
2017-07-10T05:30:55.772Z,0
2017-07-10T05:31:55.804Z,0
2017-07-10T05:32:56.554Z,0
2017-07-10T05:33:56.372Z,0
2017-07-10T05:34:56.213Z,0
2017-07-10T05:35:55.912Z,0
2017-07-10T05:36:55.931Z,0
2017-07-10T05:37:56.389Z,0
2017-07-10T05:38:56.318Z,0
2017-07-10T05:39:56.012Z,0
2017-07-10T05:40:55.709Z,0
2017-07-10T05:41:55.735Z,0
2017-07-10T05:42:56.415Z,0
2017-07-10T05:43:56.557Z,0
2017-07-10T05:44:56.260Z,0
2017-07-10T05:45:56.165Z,0
2017-07-10T05:46:56.205Z,0
2017-07-10T05:47:56.662Z,0
2017-07-10T05:48:56.300Z,0
2017-07-10T05:49:56.593Z,5
2017-07-10T05:50:56.300Z,5
2017-07-10T05:51:56.642Z,5
2017-07-10T05:52:56.663Z,5
2017-07-10T05:53:57.031Z,5
2017-07-10T05:54:56.076Z,5
2017-07-10T05:55:56.427Z,10
2017-07-10T05:56:57.098Z,5
2017-07-10T05:57:56.798Z,5
2017-07-10T05:58:56.833Z,5
2017-07-10T05:59:56.856Z,0
2017-07-10T06:00:57.190Z,5
2017-07-10T06:01:55.922Z,5
2017-07-10T06:02:56.920Z,10
2017-07-10T06:03:56.621Z,15
2017-07-10T06:04:56.974Z,15
2017-07-10T06:05:56.342Z,15
2017-07-10T06:06:56.707Z,15
2017-07-10T06:07:57.057Z,20
2017-07-10T06:08:57.249Z,20
2017-07-10T06:09:56.893Z,20
2017-07-10T06:10:56.799Z,20
2017-07-10T06:11:57.176Z,20
2017-07-10T06:12:57.579Z,20
2017-07-10T06:13:57.011Z,20
2017-07-10T06:14:57.330Z,15
2017-07-10T06:15:56.927Z,15
2017-07-10T06:16:57.597Z,15
2017-07-10T06:17:56.775Z,15
2017-07-10T06:18:57.338Z,15
2017-07-10T06:19:57.704Z,20
2017-07-10T06:20:57.715Z,15
2017-07-10T06:21:56.435Z,15
2017-07-10T06:22:57.430Z,10
2017-07-10T06:23:57.141Z,10
2017-07-10T06:24:57.155Z,10
2017-07-10T06:25:57.181Z,10
2017-07-10T06:26:57.544Z,5
2017-07-10T06:27:57.357Z,5
2017-07-10T06:28:57.352Z,5
2017-07-10T06:29:57.285Z,5
2017-07-10T06:30:57.648Z,10
2017-07-10T06:31:57.667Z,10
2017-07-10T06:32:57.722Z,15
2017-07-10T06:33:57.724Z,20
2017-07-10T06:34:57.089Z,20
2017-07-10T06:35:57.444Z,15
2017-07-10T06:36:57.202Z,15
2017-07-10T06:37:57.494Z,15
2017-07-10T06:38:58.165Z,10
2017-07-10T06:39:58.004Z,15
2017-07-10T06:40:57.899Z,15
2017-07-10T06:41:57.602Z,15
2017-07-10T06:42:57.616Z,15
2017-07-10T06:43:58.096Z,10
2017-07-10T06:44:58.000Z,5
2017-07-10T06:45:58.064Z,5
2017-07-10T06:46:57.399Z,5
2017-07-10T06:47:57.873Z,5
2017-07-10T06:48:58.432Z,10
2017-07-10T06:49:57.803Z,15
2017-07-10T06:50:57.828Z,20
2017-07-10T06:51:58.308Z,20
2017-07-10T06:52:57.664Z,15
2017-07-10T06:53:58.386Z,10
2017-07-10T06:54:58.251Z,5
2017-07-10T06:55:58.280Z,5
2017-07-10T06:56:57.982Z,0
2017-07-10T06:57:58.429Z,0
2017-07-10T06:58:57.716Z,0
2017-07-10T06:59:58.732Z,0
2017-07-10T07:00:58.088Z,0
2017-07-10T07:01:58.124Z,0
2017-07-10T07:02:58.225Z,0
2017-07-10T07:03:58.171Z,0
2017-07-10T07:04:58.182Z,0
2017-07-10T07:05:58.904Z,0
2017-07-10T07:06:58.880Z,0
2017-07-10T07:07:58.267Z,0
2017-07-10T07:08:58.721Z,0
2017-07-10T07:09:59.076Z,0
2017-07-10T07:10:58.692Z,0
2017-07-10T07:11:59.156Z,0
2017-07-10T07:12:58.507Z,0
2017-07-10T07:13:59.209Z,0
2017-07-10T07:14:58.975Z,0
2017-07-10T07:15:59.114Z,0
2017-07-10T07:16:58.812Z,0
2017-07-10T07:17:58.624Z,0
2017-07-10T07:18:59.189Z,0
2017-07-10T07:19:59.218Z,0
2017-07-10T07:20:59.041Z,0
2017-07-10T07:21:58.311Z,0
2017-07-10T07:22:58.318Z,0
2017-07-10T07:23:58.990Z,0
2017-07-10T07:24:58.375Z,0
2017-07-10T07:25:59.049Z,0
2017-07-10T07:26:59.502Z,0
2017-07-10T07:27:59.103Z,0
2017-07-10T07:28:58.477Z,0
2017-07-10T07:29:58.825Z,0
2017-07-10T07:30:58.974Z,0
2017-07-10T07:31:59.219Z,0
2017-07-10T07:32:59.359Z,0
2017-07-10T07:33:59.270Z,0
2017-07-10T07:34:59.280Z,0
2017-07-10T07:35:58.422Z,0
2017-07-10T07:36:59.006Z,0
2017-07-10T07:37:58.709Z,0
2017-07-10T07:38:59.489Z,0
2017-07-10T07:39:59.840Z,0
2017-07-10T07:40:59.105Z,0
2017-07-10T07:41:58.998Z,0
2017-07-10T07:42:59.248Z,0
2017-07-10T07:43:58.534Z,0
2017-07-10T07:44:59.337Z,0
2017-07-10T07:45:58.909Z,0
2017-07-10T07:46:59.264Z,0
2017-07-10T07:47:59.321Z,5
2017-07-10T07:48:59.633Z,5
2017-07-10T07:49:59.336Z,5
2017-07-10T07:50:59.361Z,5
2017-07-10T07:51:59.386Z,5
2017-07-10T07:52:59.535Z,5
2017-07-10T07:53:59.781Z,5
2017-07-10T07:54:59.467Z,5
2017-07-10T07:55:59.494Z,5
2017-07-10T07:56:59.845Z,5
2017-07-10T07:57:59.997Z,5
2017-07-10T07:58:59.565Z,5
2017-07-10T07:59:59.594Z,5
2017-07-10T08:00:59.292Z,5
2017-07-10T08:01:59.965Z,5
2017-07-10T08:02:59.679Z,5
2017-07-10T08:03:59.755Z,5
2017-07-10T08:04:59.837Z,5
2017-07-10T08:05:59.422Z,10
2017-07-10T08:07:00.101Z,10
2017-07-10T08:08:00.121Z,10
2017-07-10T08:09:00.139Z,10
2017-07-10T08:10:00.173Z,10
2017-07-10T08:11:00.200Z,10
2017-07-10T08:11:59.578Z,10
2017-07-10T08:12:59.749Z,10
2017-07-10T08:14:00.281Z,10
2017-07-10T08:15:00.297Z,10
2017-07-10T08:16:00.666Z,10
2017-07-10T08:16:59.702Z,10
2017-07-10T08:18:00.060Z,10
2017-07-10T08:19:00.081Z,15
2017-07-10T08:20:00.441Z,15
2017-07-10T08:21:00.463Z,15
2017-07-10T08:22:00.163Z,20
2017-07-10T08:23:00.499Z,20
2017-07-10T08:23:59.882Z,25
2017-07-10T08:25:00.253Z,25
2017-07-10T08:26:00.272Z,25
2017-07-10T08:27:00.283Z,25
2017-07-10T08:28:00.642Z,25
2017-07-10T08:29:00.004Z,20
2017-07-10T08:29:59.709Z,20
2017-07-10T08:31:00.059Z,15
2017-07-10T08:32:00.903Z,10
2017-07-10T08:33:00.758Z,10
2017-07-10T08:34:00.459Z,10
2017-07-10T08:35:00.810Z,10
2017-07-10T08:36:01.169Z,10
2017-07-10T08:37:01.183Z,10
2017-07-10T08:38:00.577Z,15
2017-07-10T08:39:01.047Z,20
2017-07-10T08:40:00.968Z,25
2017-07-10T08:41:00.965Z,30
2017-07-10T08:42:00.357Z,35
2017-07-10T08:43:01.011Z,40
2017-07-10T08:44:01.372Z,45
2017-07-10T08:45:00.749Z,50
2017-07-10T08:46:01.412Z,50
2017-07-10T08:47:01.249Z,50
2017-07-10T08:48:00.920Z,50
2017-07-10T08:49:00.969Z,45
2017-07-10T08:50:01.108Z,50
2017-07-10T08:51:01.037Z,50
2017-07-10T08:52:01.046Z,55
2017-07-10T08:53:01.045Z,55
2017-07-10T08:54:01.291Z,55
2017-07-10T08:55:01.501Z,45
2017-07-10T08:56:01.431Z,50
2017-07-10T08:57:01.184Z,55
2017-07-10T08:58:01.179Z,45
2017-07-10T08:59:01.513Z,45
2017-07-10T09:00:01.967Z,45
2017-07-10T09:01:01.223Z,50
2017-07-10T09:02:01.966Z,50
2017-07-10T09:03:01.254Z,40
2017-07-10T09:04:00.906Z,45
2017-07-10T09:05:01.260Z,45
2017-07-10T09:06:01.973Z,50
2017-07-10T09:07:01.315Z,45
2017-07-10T09:08:01.333Z,45
2017-07-10T09:09:02.014Z,45
2017-07-10T09:10:02.032Z,45
2017-07-10T09:11:00.764Z,45
2017-07-10T09:12:01.443Z,45
2017-07-10T09:13:01.475Z,45
2017-07-10T09:14:01.845Z,45
2017-07-10T09:15:01.529Z,40
2017-07-10T09:16:01.652Z,50
2017-07-10T09:17:01.674Z,45
2017-07-10T09:18:01.677Z,45
2017-07-10T09:19:01.953Z,45
2017-07-10T09:20:01.765Z,40
2017-07-10T09:21:01.791Z,45
2017-07-10T09:22:01.784Z,45
2017-07-10T09:23:02.379Z,45
2017-07-10T09:24:02.473Z,45
2017-07-10T09:25:01.966Z,45
2017-07-10T09:26:02.002Z,40
2017-07-10T09:27:01.953Z,40
2017-07-10T09:28:02.180Z,40
2017-07-10T09:29:02.332Z,35
2017-07-10T09:30:01.702Z,35
2017-07-10T09:31:02.019Z,40
2017-07-10T09:32:02.350Z,45
2017-07-10T09:33:02.194Z,40
2017-07-10T09:34:02.403Z,40
2017-07-10T09:35:02.401Z,45
2017-07-10T09:36:02.389Z,55
2017-07-10T09:37:02.094Z,55
2017-07-10T09:38:02.442Z,55
2017-07-10T09:39:02.795Z,50
2017-07-10T09:40:02.838Z,50
2017-07-10T09:41:02.540Z,50
2017-07-10T09:42:02.227Z,50
2017-07-10T09:43:02.014Z,50
2017-07-10T09:44:02.049Z,50
2017-07-10T09:45:02.387Z,55
2017-07-10T09:46:02.343Z,50
2017-07-10T09:47:03.004Z,50
2017-07-10T09:48:02.739Z,50
2017-07-10T09:49:03.193Z,55
2017-07-10T09:50:02.459Z,55
2017-07-10T09:51:02.463Z,55
2017-07-10T09:52:02.895Z,55
2017-07-10T09:53:02.194Z,55
2017-07-10T09:54:02.566Z,55
2017-07-10T09:55:02.672Z,50
2017-07-10T09:56:03.072Z,45
2017-07-10T09:57:03.039Z,40
2017-07-10T09:58:02.332Z,45
2017-07-10T09:59:02.874Z,55
2017-07-10T10:00:02.381Z,55
2017-07-10T10:01:03.087Z,70
2017-07-10T10:02:03.206Z,50
2017-07-10T10:03:02.902Z,65
2017-07-10T10:04:03.349Z,75
2017-07-10T10:05:02.610Z,85
2017-07-10T10:06:03.534Z,50
2017-07-10T10:07:03.347Z,45
2017-07-10T10:08:03.046Z,55
2017-07-10T10:09:02.951Z,50
2017-07-10T10:10:03.004Z,50
2017-07-10T10:11:02.690Z,50
2017-07-10T10:12:03.060Z,55
2017-07-10T10:13:03.066Z,50
2017-07-10T10:14:03.102Z,50
2017-07-10T10:15:03.775Z,50
2017-07-10T10:16:03.481Z,45
2017-07-10T10:17:03.184Z,60
2017-07-10T10:18:02.936Z,70
2017-07-10T10:19:03.880Z,70
2017-07-10T10:20:03.582Z,60
2017-07-10T10:21:03.322Z,45
2017-07-10T10:22:03.659Z,40
2017-07-10T10:23:03.026Z,30
2017-07-10T10:24:03.058Z,30
2017-07-10T10:25:03.528Z,40
2017-07-10T10:26:03.809Z,70
2017-07-10T10:27:03.459Z,65
2017-07-10T10:28:03.488Z,45
2017-07-10T10:29:03.846Z,60
2017-07-10T10:30:03.542Z,60
2017-07-10T10:31:03.568Z,75
2017-07-10T10:32:03.921Z,80
2017-07-10T10:33:03.953Z,75
2017-07-10T10:34:03.668Z,60
2017-07-10T10:35:04.010Z,65
2017-07-10T10:36:04.047Z,80
2017-07-10T10:37:03.749Z,80
2017-07-10T10:38:04.444Z,85
2017-07-10T10:39:03.476Z,75
2017-07-10T10:40:03.845Z,80
2017-07-10T10:41:03.856Z,80
2017-07-10T10:42:03.256Z,80
2017-07-10T10:43:04.239Z,75
2017-07-10T10:44:03.961Z,75
2017-07-10T10:45:04.295Z,75
2017-07-10T10:46:03.356Z,55
2017-07-10T10:47:04.361Z,65
2017-07-10T10:48:03.737Z,75
2017-07-10T10:49:04.436Z,70
2017-07-10T10:50:04.454Z,75
2017-07-10T10:51:04.152Z,75
2017-07-10T10:52:03.857Z,70
2017-07-10T10:53:04.752Z,75
2017-07-10T10:54:04.256Z,60
2017-07-10T10:55:05.070Z,65
2017-07-10T10:56:04.302Z,85
2017-07-10T10:57:04.754Z,85
2017-07-10T10:58:04.782Z,80
2017-07-10T10:59:04.053Z,70
2017-07-10T11:00:04.412Z,70
2017-07-10T11:01:04.234Z,65
2017-07-10T11:02:04.872Z,65
2017-07-10T11:03:04.869Z,65
2017-07-10T11:04:04.578Z,65
2017-07-10T11:05:04.243Z,70
2017-07-10T11:06:04.707Z,70
2017-07-10T11:07:04.940Z,75
2017-07-10T11:08:04.983Z,80
2017-07-10T11:09:04.347Z,70
2017-07-10T11:10:04.741Z,50
2017-07-10T11:11:04.780Z,55
2017-07-10T11:12:05.089Z,75
2017-07-10T11:13:05.133Z,65
2017-07-10T11:14:04.825Z,50
2017-07-10T11:15:04.471Z,65
2017-07-10T11:16:05.323Z,60
2017-07-10T11:17:05.358Z,65
2017-07-10T11:18:04.437Z,70
2017-07-10T11:19:04.449Z,60
2017-07-10T11:20:04.786Z,90
2017-07-10T11:21:04.716Z,70
2017-07-10T11:22:04.958Z,80
2017-07-10T11:23:05.419Z,95
2017-07-10T11:24:05.470Z,95
2017-07-10T11:25:05.480Z,95
2017-07-10T11:26:04.872Z,95
2017-07-10T11:27:05.228Z,95
2017-07-10T11:28:05.275Z,80
2017-07-10T11:29:05.956Z,75
2017-07-10T11:30:04.995Z,60
2017-07-10T11:31:05.780Z,85
2017-07-10T11:32:05.813Z,65
2017-07-10T11:33:05.495Z,75
2017-07-10T11:34:05.832Z,70
2017-07-10T11:35:05.873Z,95
2017-07-10T11:36:05.911Z,60
2017-07-10T11:37:05.855Z,100
2017-07-10T11:38:05.897Z,95
2017-07-10T11:39:05.599Z,105
2017-07-10T11:40:05.626Z,90
2017-07-10T11:41:06.159Z,70
2017-07-10T11:42:05.684Z,65
2017-07-10T11:43:06.356Z,65
2017-07-10T11:44:06.406Z,55
2017-07-10T11:45:06.097Z,45
2017-07-10T11:46:05.507Z,45
2017-07-10T11:47:06.195Z,40
2017-07-10T11:48:05.873Z,40
2017-07-10T11:49:05.925Z,40
2017-07-10T11:50:05.604Z,70
2017-07-10T11:51:05.640Z,70
2017-07-10T11:52:06.194Z,75
2017-07-10T11:53:06.161Z,70
2017-07-10T11:54:06.717Z,65
2017-07-10T11:55:06.749Z,65
2017-07-10T11:56:06.775Z,75
2017-07-10T11:57:05.506Z,90
2017-07-10T11:58:07.003Z,60
2017-07-10T11:59:06.548Z,55
2017-07-10T12:00:06.709Z,70
2017-07-10T12:01:05.639Z,95
2017-07-10T12:02:05.989Z,95
2017-07-10T12:03:06.671Z,65
2017-07-10T12:04:06.820Z,90
2017-07-10T12:05:06.829Z,95
2017-07-10T12:06:06.440Z,105
2017-07-10T12:07:06.901Z,100
2017-07-10T12:08:06.884Z,85
2017-07-10T12:09:06.533Z,80
2017-07-10T12:10:07.223Z,70
2017-07-10T12:11:06.627Z,90
2017-07-10T12:12:06.634Z,80
2017-07-10T12:13:06.342Z,85
2017-07-10T12:14:06.695Z,70
2017-07-10T12:15:06.081Z,65
2017-07-10T12:16:07.133Z,65
2017-07-10T12:17:06.797Z,70
2017-07-10T12:18:07.567Z,60
2017-07-10T12:19:07.255Z,55
2017-07-10T12:20:06.569Z,60
2017-07-10T12:21:07.752Z,40
2017-07-10T12:22:06.954Z,35
2017-07-10T12:23:06.666Z,30
2017-07-10T12:24:06.698Z,30
2017-07-10T12:25:06.737Z,30
2017-07-10T12:26:07.415Z,30
2017-07-10T12:27:06.805Z,25
2017-07-10T12:28:07.503Z,25
2017-07-10T12:29:07.527Z,25
2017-07-10T12:30:07.253Z,25
2017-07-10T12:31:07.257Z,30
2017-07-10T12:32:07.287Z,25
2017-07-10T12:33:07.645Z,25
2017-07-10T12:34:07.430Z,20
2017-07-10T12:35:07.708Z,20
2017-07-10T12:36:07.155Z,20
2017-07-10T12:37:07.127Z,20
2017-07-10T12:38:07.337Z,20
2017-07-10T12:39:07.835Z,20
2017-07-10T12:40:07.563Z,20
2017-07-10T12:41:07.252Z,20
2017-07-10T12:42:07.301Z,25
2017-07-10T12:43:07.647Z,30
2017-07-10T12:44:08.013Z,30
2017-07-10T12:45:07.820Z,35
2017-07-10T12:46:08.163Z,40
2017-07-10T12:47:08.100Z,40
2017-07-10T12:48:07.824Z,40
2017-07-10T12:49:08.489Z,40
2017-07-10T12:50:08.193Z,40
2017-07-10T12:51:07.675Z,40
2017-07-10T12:52:08.589Z,45
2017-07-10T12:53:08.296Z,45
2017-07-10T12:54:08.003Z,55
2017-07-10T12:55:08.685Z,65
2017-07-10T12:56:08.396Z,90
2017-07-10T12:57:08.429Z,90
2017-07-10T12:58:08.130Z,85
2017-07-10T12:59:08.166Z,80
2017-07-10T13:00:08.528Z,75
2017-07-10T13:01:08.225Z,75
2017-07-10T13:02:08.620Z,65
2017-07-10T13:03:08.293Z,70
2017-07-10T13:04:08.334Z,80
2017-07-10T13:05:08.360Z,80
2017-07-10T13:06:08.732Z,75
2017-07-10T13:07:08.418Z,70
2017-07-10T13:08:08.459Z,65
2017-07-10T13:09:08.813Z,55
2017-07-10T13:10:08.525Z,50
2017-07-10T13:11:08.880Z,55
2017-07-10T13:12:08.911Z,55
2017-07-10T13:13:08.615Z,55
2017-07-10T13:14:08.657Z,60
2017-07-10T13:15:09.039Z,60
2017-07-10T13:16:09.442Z,60
2017-07-10T13:17:08.756Z,55
2017-07-10T13:18:08.781Z,50
2017-07-10T13:19:08.813Z,55
2017-07-10T13:20:08.841Z,50
2017-07-10T13:21:08.880Z,50
2017-07-10T13:22:08.908Z,55
2017-07-10T13:23:08.292Z,75
2017-07-10T13:24:08.976Z,80
2017-07-10T13:25:09.008Z,90
2017-07-10T13:26:09.469Z,70
2017-07-10T13:27:08.743Z,50
2017-07-10T13:28:09.424Z,50
2017-07-10T13:29:09.463Z,60
2017-07-10T13:30:09.499Z,65
2017-07-10T13:31:08.876Z,50
2017-07-10T13:32:09.235Z,40
2017-07-10T13:33:09.264Z,35
2017-07-10T13:34:08.973Z,45
2017-07-10T13:35:09.079Z,50
2017-07-10T13:36:09.383Z,60
2017-07-10T13:37:09.718Z,70
2017-07-10T13:38:09.104Z,85
2017-07-10T13:39:09.454Z,90
2017-07-10T13:40:09.802Z,70
2017-07-10T13:41:09.847Z,55
2017-07-10T13:42:09.560Z,50
2017-07-10T13:43:09.912Z,55
2017-07-10T13:44:09.622Z,65
2017-07-10T13:45:09.653Z,75
2017-07-10T13:46:10.032Z,85
2017-07-10T13:47:09.388Z,90
2017-07-10T13:48:09.426Z,95
2017-07-10T13:49:09.776Z,120
2017-07-10T13:50:09.487Z,115
2017-07-10T13:51:10.173Z,135
2017-07-10T13:52:09.565Z,120
2017-07-10T13:53:09.903Z,100
2017-07-10T13:54:09.970Z,75
2017-07-10T13:55:09.654Z,80
2017-07-10T13:56:10.002Z,90
2017-07-10T13:57:10.875Z,100
2017-07-10T13:58:10.436Z,105
2017-07-10T13:59:09.777Z,100
2017-07-10T14:00:09.811Z,95
2017-07-10T14:01:10.613Z,130
2017-07-10T14:02:10.195Z,145
2017-07-10T14:03:10.679Z,85
2017-07-10T14:04:09.951Z,65
2017-07-10T14:05:10.392Z,70
2017-07-10T14:06:11.102Z,85
2017-07-10T14:07:10.759Z,85
2017-07-10T14:08:10.063Z,85
2017-07-10T14:09:10.540Z,70
2017-07-10T14:10:10.780Z,55
2017-07-10T14:11:10.687Z,65
2017-07-10T14:12:10.358Z,95
2017-07-10T14:13:11.208Z,105
2017-07-10T14:14:10.684Z,135
2017-07-10T14:15:10.715Z,120
2017-07-10T14:16:11.361Z,105
2017-07-10T14:17:10.683Z,100
2017-07-10T14:18:10.389Z,75
2017-07-10T14:19:10.419Z,105
2017-07-10T14:20:10.459Z,100
2017-07-10T14:21:11.459Z,110
2017-07-10T14:22:11.288Z,95
2017-07-10T14:23:10.870Z,75
2017-07-10T14:24:10.267Z,80
2017-07-10T14:25:11.159Z,70
2017-07-10T14:26:10.651Z,75
2017-07-10T14:27:11.107Z,120
2017-07-10T14:28:11.058Z,110
2017-07-10T14:29:11.070Z,85
2017-07-10T14:30:10.791Z,100
2017-07-10T14:31:11.461Z,85